createdAt,value
2022-10-17T00:00:05.445Z,17.94
2022-10-17T00:02:55.593Z,17.93
2022-10-17T00:05:25.015Z,17.94
2022-10-17T00:07:53.197Z,17.92
2022-10-17T00:10:21.636Z,17.92
2022-10-17T00:12:50.952Z,17.93
2022-10-17T00:15:20.521Z,17.93
2022-10-17T00:17:51.605Z,17.93
2022-10-17T00:20:19.431Z,17.92
2022-10-17T00:22:46.902Z,17.91
2022-10-17T00:25:14.829Z,17.91
2022-10-17T00:27:42.683Z,17.91
2022-10-17T00:30:14.282Z,17.90
2022-10-17T00:32:41.747Z,17.91
2022-10-17T00:35:09.954Z,17.90
2022-10-17T00:37:37.537Z,17.90
2022-10-17T00:40:07.142Z,17.89
2022-10-17T00:42:34.971Z,17.90
2022-10-17T00:45:17.488Z,17.89
2022-10-17T00:47:51.573Z,17.89
2022-10-17T00:50:20.103Z,17.89
2022-10-17T00:52:48.824Z,17.90
2022-10-17T00:55:18.190Z,17.90
2022-10-17T00:57:46.170Z,17.90
2022-10-17T01:00:15.215Z,17.90
2022-10-17T01:02:42.666Z,17.89
2022-10-17T01:05:11.473Z,17.89
2022-10-17T01:07:41.673Z,17.89
2022-10-17T01:10:10.876Z,17.90
2022-10-17T01:13:05.914Z,17.89
2022-10-17T01:15:36.557Z,17.89
2022-10-17T01:18:22.603Z,17.89
2022-10-17T01:20:59.012Z,17.89
2022-10-17T01:23:47.693Z,17.88
2022-10-17T01:26:45.580Z,17.89
2022-10-17T01:29:33.709Z,17.89
2022-10-17T01:32:18.745Z,17.88
2022-10-17T01:35:07.951Z,17.88
2022-10-17T01:38:12.853Z,17.89
2022-10-17T01:40:49.138Z,17.89
2022-10-17T01:43:29.458Z,17.88
2022-10-17T01:46:02.648Z,17.87
2022-10-17T01:48:35.753Z,17.88
2022-10-17T01:51:09.154Z,17.88
2022-10-17T01:53:42.344Z,17.88
2022-10-17T01:56:13.065Z,17.87
2022-10-17T01:58:47.392Z,17.87
2022-10-17T02:01:17.298Z,17.87
2022-10-17T02:03:47.458Z,17.88
2022-10-17T02:06:15.069Z,17.87
2022-10-17T02:08:46.049Z,17.85
2022-10-17T02:11:15.992Z,17.86
2022-10-17T02:14:04.223Z,17.86
2022-10-17T02:16:35.029Z,17.85
2022-10-17T02:19:29.883Z,17.86
2022-10-17T02:22:21.298Z,17.86
2022-10-17T02:25:19.649Z,17.85
2022-10-17T02:27:57.537Z,17.85
2022-10-17T02:30:39.922Z,17.85
2022-10-17T02:33:23.193Z,17.85
2022-10-17T02:35:55.110Z,17.85
2022-10-17T02:38:25.424Z,17.85
2022-10-17T02:40:53.364Z,17.84
2022-10-17T02:43:21.992Z,17.84
2022-10-17T02:45:52.501Z,17.83
2022-10-17T02:48:43.691Z,17.83
2022-10-17T02:51:40.222Z,17.83
2022-10-17T02:54:16.521Z,17.84
2022-10-17T02:56:51.656Z,17.85
2022-10-17T02:59:22.567Z,17.84
2022-10-17T03:01:51.573Z,17.84
2022-10-17T03:04:19.520Z,17.82
2022-10-17T03:06:48.381Z,17.83
2022-10-17T03:09:16.313Z,17.83
2022-10-17T03:11:43.824Z,17.82
2022-10-17T03:14:11.134Z,17.83
2022-10-17T03:16:38.724Z,17.82
2022-10-17T03:19:06.229Z,17.82
2022-10-17T03:21:36.336Z,17.82
2022-10-17T03:24:04.286Z,17.82
2022-10-17T03:26:31.939Z,17.81
2022-10-17T03:28:59.236Z,17.82
2022-10-17T03:31:26.892Z,17.82
2022-10-17T03:33:54.171Z,17.80
2022-10-17T03:36:22.029Z,17.80
2022-10-17T03:38:49.393Z,17.80
2022-10-17T03:41:16.983Z,17.79
2022-10-17T03:43:44.358Z,17.80
2022-10-17T03:46:11.871Z,17.79
2022-10-17T03:48:39.199Z,17.79
2022-10-17T03:51:09.223Z,17.80
2022-10-17T03:53:36.546Z,17.79
2022-10-17T03:56:12.469Z,17.79
2022-10-17T03:58:40.460Z,17.79
2022-10-17T04:01:10.470Z,17.78
2022-10-17T04:03:38.281Z,17.78
2022-10-17T04:06:06.792Z,17.78
2022-10-17T04:08:34.833Z,17.78
2022-10-17T04:11:04.447Z,17.78
2022-10-17T04:13:31.963Z,17.78
2022-10-17T04:16:02.348Z,17.78
2022-10-17T04:18:29.684Z,17.77
2022-10-17T04:20:57.446Z,17.77
2022-10-17T04:23:26.470Z,17.78
2022-10-17T04:25:58.504Z,17.77
2022-10-17T04:28:27.152Z,17.76
2022-10-17T04:30:58.157Z,17.77
2022-10-17T04:33:25.689Z,17.76
2022-10-17T04:36:13.632Z,17.77
2022-10-17T04:38:41.383Z,17.77
2022-10-17T04:41:13.010Z,17.76
2022-10-17T04:43:41.204Z,17.75
2022-10-17T04:46:11.681Z,17.75
2022-10-17T04:48:40.113Z,17.75
2022-10-17T04:51:12.123Z,17.74
2022-10-17T04:53:40.812Z,17.75
2022-10-17T04:56:14.742Z,17.74
2022-10-17T04:58:43.026Z,17.74
2022-10-17T05:01:12.905Z,17.73
2022-10-17T05:03:40.641Z,17.74
2022-10-17T05:06:14.721Z,17.74
2022-10-17T05:08:43.034Z,17.74
2022-10-17T05:11:20.989Z,17.74
2022-10-17T05:13:58.562Z,17.74
2022-10-17T05:16:27.814Z,17.73
2022-10-17T05:18:57.184Z,17.73
2022-10-17T05:21:27.136Z,17.74
2022-10-17T05:23:55.192Z,17.73
2022-10-17T05:26:23.961Z,17.74
2022-10-17T05:28:54.853Z,17.74
2022-10-17T05:31:22.505Z,17.74
2022-10-17T05:33:49.855Z,17.75
2022-10-17T05:36:17.445Z,17.74
2022-10-17T05:38:49.301Z,17.76
2022-10-17T05:41:16.910Z,17.77
2022-10-17T05:43:44.390Z,17.77
2022-10-17T05:46:12.169Z,17.77
2022-10-17T05:48:39.425Z,17.77
2022-10-17T05:51:09.392Z,17.78
2022-10-17T05:53:40.045Z,17.76
2022-10-17T05:56:10.759Z,17.77
2022-10-17T05:58:50.348Z,17.77
2022-10-17T06:01:19.486Z,17.75
2022-10-17T06:03:46.751Z,17.75
2022-10-17T06:06:15.403Z,17.76
2022-10-17T06:08:43.560Z,17.76
2022-10-17T06:11:12.402Z,17.77
2022-10-17T06:13:41.193Z,17.76
2022-10-17T06:16:09.254Z,17.77
2022-10-17T06:18:42.864Z,17.77
2022-10-17T06:21:12.507Z,17.77
2022-10-17T06:23:39.860Z,17.77
2022-10-17T06:26:07.653Z,17.78
2022-10-17T06:28:35.855Z,17.77
2022-10-17T06:31:11.544Z,17.78
2022-10-17T06:33:39.509Z,17.77
2022-10-17T06:36:10.139Z,17.77
2022-10-17T06:38:37.731Z,17.78
2022-10-17T06:41:10.024Z,17.79
2022-10-17T06:43:37.939Z,17.79
2022-10-17T06:46:05.745Z,17.79
2022-10-17T06:48:33.319Z,17.80
2022-10-17T06:51:06.110Z,17.80
2022-10-17T06:53:34.941Z,17.80
2022-10-17T06:56:04.196Z,17.81
2022-10-17T06:58:36.006Z,17.82
2022-10-17T07:03:34.713Z,17.84
2022-10-17T07:06:03.281Z,17.85
2022-10-17T07:08:30.775Z,17.85
2022-10-17T07:10:58.723Z,17.86
2022-10-17T07:13:26.013Z,17.87
2022-10-17T07:18:25.671Z,17.88
2022-10-17T07:20:55.096Z,17.88
2022-10-17T07:23:23.054Z,17.89
2022-10-17T07:25:50.774Z,17.91
2022-10-17T07:28:18.506Z,17.90
2022-10-17T07:30:49.316Z,17.92
2022-10-17T07:33:18.019Z,17.93
2022-10-17T07:35:45.548Z,17.93
2022-10-17T07:38:12.837Z,17.93
2022-10-17T07:40:40.567Z,17.94
2022-10-17T07:43:07.973Z,17.94
2022-10-17T07:45:35.498Z,17.95
2022-10-17T07:48:02.837Z,17.95
2022-10-17T07:50:31.699Z,17.95
2022-10-17T07:52:59.088Z,17.95
2022-10-17T07:55:26.641Z,17.96
2022-10-17T07:57:53.973Z,17.97
2022-10-17T08:00:21.588Z,17.98
2022-10-17T08:02:49.091Z,17.97
2022-10-17T08:05:16.585Z,17.98
2022-10-17T08:07:44.077Z,17.99
2022-10-17T08:10:13.484Z,17.99
2022-10-17T08:12:40.986Z,18.00
2022-10-17T08:15:10.121Z,18.00
2022-10-17T08:17:38.858Z,18.02
2022-10-17T08:20:06.935Z,18.02
2022-10-17T08:22:34.910Z,18.03
2022-10-17T08:25:02.600Z,18.03
2022-10-17T08:27:30.133Z,18.04
2022-10-17T08:29:57.635Z,18.04
2022-10-17T08:32:27.240Z,18.05
2022-10-17T08:34:56.317Z,18.06
2022-10-17T08:37:24.058Z,18.05
2022-10-17T08:39:51.609Z,18.06
2022-10-17T08:42:21.705Z,18.08
2022-10-17T08:45:01.030Z,18.08
2022-10-17T08:47:38.249Z,18.09
2022-10-17T08:50:10.453Z,18.11
2022-10-17T08:52:52.405Z,18.11
2022-10-17T08:55:40.001Z,18.11
2022-10-17T08:58:17.047Z,18.13
2022-10-17T09:01:20.533Z,18.12
2022-10-17T09:04:21.794Z,18.13
2022-10-17T09:07:01.089Z,18.14
2022-10-17T09:09:34.373Z,18.15
2022-10-17T09:12:24.754Z,18.15
2022-10-17T09:15:13.708Z,18.16
2022-10-17T09:18:02.353Z,18.16
2022-10-17T09:20:38.278Z,18.17
2022-10-17T09:23:21.136Z,18.17
2022-10-17T09:25:52.482Z,18.18
2022-10-17T09:28:27.754Z,18.18
2022-10-17T09:31:05.112Z,18.19
2022-10-17T13:21:30.065Z,18.73
2022-10-17T13:23:57.667Z,18.74
2022-10-17T13:26:27.718Z,18.74
2022-10-17T13:29:04.742Z,18.75
2022-10-17T13:31:35.870Z,18.76
2022-10-17T13:34:19.484Z,18.75
2022-10-17T13:36:49.117Z,18.76
2022-10-17T13:39:32.644Z,18.76
2022-10-17T13:42:28.604Z,18.77
2022-10-17T13:44:58.386Z,18.78
2022-10-17T13:47:28.816Z,18.79
2022-10-17T13:49:58.333Z,18.79
2022-10-17T13:52:30.155Z,18.79
2022-10-17T13:55:17.567Z,18.80
2022-10-17T13:57:45.086Z,18.81
2022-10-17T14:00:20.743Z,18.82
2022-10-17T14:02:48.826Z,18.81
2022-10-17T14:05:21.752Z,18.82
2022-10-17T14:08:11.230Z,18.83
2022-10-17T14:10:41.685Z,18.83
2022-10-17T14:13:23.798Z,18.83
2022-10-17T14:15:53.916Z,18.83
2022-10-17T14:18:26.803Z,18.83
2022-10-17T14:21:34.003Z,18.84
2022-10-17T14:23:44.020Z,18.85
2022-10-17T14:26:16.814Z,18.84
2022-10-17T14:29:05.023Z,18.84
2022-10-17T14:31:37.008Z,18.85
2022-10-17T14:34:05.414Z,18.85
2022-10-17T14:36:38.051Z,18.84
2022-10-17T14:39:13.343Z,18.84
2022-10-17T14:41:45.411Z,18.85
2022-10-17T14:44:24.060Z,18.84
2022-10-17T14:46:55.990Z,18.84
2022-10-17T14:49:39.491Z,18.83
2022-10-17T14:52:18.340Z,18.83
2022-10-17T14:54:57.795Z,18.83
2022-10-17T14:57:31.283Z,18.83
2022-10-17T14:59:58.727Z,18.82
2022-10-17T15:02:28.483Z,18.82
2022-10-17T15:04:56.313Z,18.83
2022-10-17T15:07:24.343Z,18.81
2022-10-17T15:09:53.670Z,18.81
2022-10-17T15:12:25.587Z,18.81
2022-10-17T15:14:53.328Z,18.81
2022-10-17T15:17:29.933Z,18.80
2022-10-17T15:19:57.885Z,18.78
2022-10-17T15:22:25.402Z,18.78
2022-10-17T15:24:52.846Z,18.78
2022-10-17T15:27:22.817Z,18.77
2022-10-17T15:29:51.607Z,18.77
2022-10-17T15:32:19.497Z,18.76
2022-10-17T15:34:46.999Z,18.76
2022-10-17T15:37:21.976Z,18.75
2022-10-17T15:39:54.806Z,18.75
2022-10-17T15:42:26.941Z,18.75
2022-10-17T15:44:54.552Z,18.74
2022-10-17T15:47:27.414Z,18.74
2022-10-17T15:49:55.497Z,18.74
2022-10-17T15:52:23.911Z,18.73
2022-10-17T15:54:52.665Z,18.71
2022-10-17T15:57:24.555Z,18.70
2022-10-17T15:59:54.022Z,18.71
2022-10-17T16:02:23.508Z,18.70
2022-10-17T16:04:52.857Z,18.70
2022-10-17T16:07:20.997Z,18.69
2022-10-17T16:09:48.414Z,18.70
2022-10-17T16:12:26.702Z,18.68
2022-10-17T16:14:54.759Z,18.69
2022-10-17T16:17:22.323Z,18.69
2022-10-17T16:19:49.965Z,18.69
2022-10-17T16:22:38.550Z,18.68
2022-10-17T16:25:09.799Z,18.69
2022-10-17T16:27:38.334Z,18.69
2022-10-17T16:30:07.594Z,18.68
2022-10-17T16:32:35.178Z,18.68
2022-10-17T16:35:02.680Z,18.69
2022-10-17T16:37:30.384Z,18.68
2022-10-17T16:39:57.737Z,18.67
2022-10-17T16:42:25.307Z,18.68
2022-10-17T16:44:52.657Z,18.67
2022-10-17T16:47:20.168Z,18.67
2022-10-17T16:49:47.548Z,18.67
2022-10-17T16:52:15.632Z,18.68
2022-10-17T16:54:42.938Z,18.67
2022-10-17T16:57:10.567Z,18.66
2022-10-17T16:59:37.996Z,18.67
2022-10-17T17:02:06.083Z,18.67
2022-10-17T17:04:33.577Z,18.67
2022-10-17T17:07:01.263Z,18.66
2022-10-17T17:09:28.734Z,18.66
2022-10-17T17:11:56.308Z,18.65
2022-10-17T17:14:23.774Z,18.65
2022-10-17T17:16:51.419Z,18.65
2022-10-17T17:19:18.826Z,18.65
2022-10-17T17:21:52.461Z,18.64
2022-10-17T17:24:21.519Z,18.65
2022-10-17T17:26:54.254Z,18.65
2022-10-17T17:29:22.856Z,18.65
2022-10-17T17:31:51.021Z,18.65
2022-10-17T17:34:18.619Z,18.64
2022-10-17T17:36:47.233Z,18.64
2022-10-17T17:39:15.683Z,18.65
2022-10-17T17:41:44.193Z,18.65
2022-10-17T17:44:18.291Z,18.64
2022-10-17T17:46:46.333Z,18.64
2022-10-17T17:49:14.086Z,18.64
2022-10-17T17:51:45.979Z,18.63
2022-10-17T17:54:14.209Z,18.63
2022-10-17T17:56:42.039Z,18.64
2022-10-17T17:59:12.289Z,18.65
2022-10-17T18:01:40.431Z,18.63
2022-10-17T18:04:08.979Z,18.64
2022-10-17T18:06:38.886Z,18.63
2022-10-17T18:09:08.452Z,18.63
2022-10-17T18:11:37.469Z,18.63
2022-10-17T18:14:08.134Z,18.63
2022-10-17T18:16:37.949Z,18.62
2022-10-17T18:19:07.437Z,18.63
2022-10-17T18:21:36.328Z,18.62
2022-10-17T18:24:04.847Z,18.62
2022-10-17T18:26:32.997Z,18.63
2022-10-17T18:29:00.417Z,18.62
2022-10-17T18:31:32.089Z,18.62
2022-10-17T18:34:00.262Z,18.63
2022-10-17T18:36:29.556Z,18.61
2022-10-17T18:39:00.664Z,18.61
2022-10-17T18:41:28.868Z,18.61
2022-10-17T18:43:56.723Z,18.61
2022-10-17T18:46:30.178Z,18.60
2022-10-17T18:48:58.385Z,18.61
2022-10-17T18:51:26.869Z,18.60
2022-10-17T18:53:56.419Z,18.59
2022-10-17T18:56:25.165Z,18.59
2022-10-17T18:58:53.030Z,18.60
2022-10-17T19:01:22.828Z,18.59
2022-10-17T19:03:52.382Z,18.60
2022-10-17T19:06:23.268Z,18.60
2022-10-17T19:08:50.962Z,18.58
2022-10-17T19:11:21.869Z,18.59
2022-10-17T19:13:49.644Z,18.57
2022-10-17T19:16:24.629Z,18.58
2022-10-17T19:19:00.613Z,18.58
2022-10-17T19:21:28.172Z,18.57
2022-10-17T19:23:58.232Z,18.58
2022-10-17T19:26:27.627Z,18.57
2022-10-17T19:28:55.189Z,18.58
2022-10-17T19:31:27.114Z,18.57
2022-10-17T19:33:55.936Z,18.57
2022-10-17T19:36:32.356Z,18.57
2022-10-17T19:39:06.392Z,18.56
2022-10-17T19:41:35.994Z,18.57
2022-10-17T19:44:03.533Z,18.56
2022-10-17T19:46:33.789Z,18.56
2022-10-17T19:49:01.546Z,18.55
2022-10-17T19:51:29.997Z,18.55
2022-10-17T19:54:02.519Z,18.55
2022-10-17T19:56:33.260Z,18.55
2022-10-17T19:59:00.676Z,18.54
2022-10-17T20:01:32.380Z,18.55
2022-10-17T20:04:00.423Z,18.54
2022-10-17T20:06:27.983Z,18.53
2022-10-17T20:08:55.975Z,18.53
2022-10-17T20:11:26.082Z,18.53
2022-10-17T20:13:54.896Z,18.53
2022-10-17T20:16:25.929Z,18.53
2022-10-17T20:18:56.917Z,18.53
2022-10-17T20:21:27.385Z,18.51
2022-10-17T20:23:55.154Z,18.53
2022-10-17T20:26:37.088Z,18.52
2022-10-17T20:29:11.974Z,18.52
2022-10-17T20:31:41.724Z,18.50
2022-10-17T20:34:11.683Z,18.51
2022-10-17T20:36:39.295Z,18.50
2022-10-17T20:39:07.458Z,18.52
2022-10-17T20:41:35.125Z,18.51
2022-10-17T20:44:02.573Z,18.50
2022-10-17T20:46:36.976Z,18.50
2022-10-17T20:49:07.548Z,18.49
2022-10-17T20:51:36.111Z,18.49
2022-10-17T20:54:04.463Z,18.48
2022-10-17T20:56:33.390Z,18.49
2022-10-17T20:59:04.509Z,18.48
2022-10-17T21:01:34.185Z,18.48
2022-10-17T21:04:21.374Z,18.47
2022-10-17T21:06:51.842Z,18.48
2022-10-17T21:09:20.166Z,18.47
2022-10-17T21:11:51.114Z,18.47
2022-10-17T21:14:18.825Z,18.47
2022-10-17T21:16:46.535Z,18.46
2022-10-17T21:19:14.889Z,18.47
2022-10-17T21:21:44.839Z,18.46
2022-10-17T21:24:14.582Z,18.46
2022-10-17T21:26:43.586Z,18.46
2022-10-17T21:29:13.112Z,18.46
2022-10-17T21:31:43.448Z,18.45
2022-10-17T21:34:17.661Z,18.45
2022-10-17T21:36:45.524Z,18.45
2022-10-17T21:39:14.098Z,18.44
2022-10-17T21:41:42.985Z,18.45
2022-10-17T21:44:16.893Z,18.44
2022-10-17T21:46:44.765Z,18.44
2022-10-17T21:49:14.156Z,18.43
2022-10-17T21:51:42.275Z,18.43
2022-10-17T21:54:09.642Z,18.42
2022-10-17T21:56:37.753Z,18.43
2022-10-17T21:59:06.793Z,18.42
2022-10-17T22:01:37.325Z,18.43
2022-10-17T22:04:07.494Z,18.42
2022-10-17T22:06:40.318Z,18.43
2022-10-17T22:09:14.753Z,18.41
2022-10-17T22:11:45.389Z,18.40
2022-10-17T22:14:15.286Z,18.41
2022-10-17T22:16:44.949Z,18.41
2022-10-17T22:19:14.070Z,18.41
2022-10-17T22:21:42.216Z,18.41
2022-10-17T22:24:12.519Z,18.42
2022-10-17T22:26:40.707Z,18.40
2022-10-17T22:29:08.912Z,18.40
2022-10-17T22:31:37.781Z,18.39
2022-10-17T22:34:06.012Z,18.39
2022-10-17T22:36:35.084Z,18.39
2022-10-17T22:39:03.692Z,18.38
2022-10-17T22:41:31.418Z,18.38
2022-10-17T22:43:58.841Z,18.38
2022-10-17T22:46:26.457Z,18.39
2022-10-17T22:48:53.839Z,18.38
2022-10-17T22:51:21.515Z,18.37
2022-10-17T22:53:48.834Z,18.37
2022-10-17T22:56:19.309Z,18.38
2022-10-17T22:58:47.292Z,18.38
2022-10-17T23:01:17.785Z,18.38
2022-10-17T23:03:45.497Z,18.37
2022-10-17T23:06:13.771Z,18.37
2022-10-17T23:08:41.148Z,18.36
2022-10-17T23:11:09.649Z,18.37
2022-10-17T23:13:37.728Z,18.36
2022-10-17T23:16:05.498Z,18.36
2022-10-17T23:18:32.925Z,18.36
2022-10-17T23:21:00.458Z,18.35
2022-10-17T23:23:27.799Z,18.35
2022-10-17T23:25:56.333Z,18.35
2022-10-17T23:28:23.739Z,18.34
2022-10-17T23:30:51.365Z,18.34
2022-10-17T23:33:18.611Z,18.34
2022-10-17T23:35:46.166Z,18.34
2022-10-17T23:38:13.444Z,18.34
2022-10-17T23:40:40.996Z,18.34
2022-10-17T23:43:08.493Z,18.34
2022-10-17T23:45:37.213Z,18.34
2022-10-17T23:48:05.455Z,18.33
2022-10-17T23:50:33.034Z,18.33
2022-10-17T23:53:00.377Z,18.32
2022-10-17T23:55:28.065Z,18.32
2022-10-17T23:57:55.424Z,18.32
